Agia Paraskevi, Greece

7:06 AM EEST on May 01, 2017 (GMT +0300)
Agia Paraskevi | | Change Station

Elev 755 ft 38.02 °N, 23.84 °E | Updated 6 minutes ago

Clear
Clear
65.3 °F
Feels Like 65.3 °F
N
7.6
Wind Variable Wind from NW
Gusts 8.3 mph

Today
High -- | Low -- °F
--% Chance of Precip.
Yesterday
High -- | Low -- °F
Precip. -- in
Pressure 29.80 in
Visibility -9999.0 miles
Clouds
Dew Point 54 °F
Humidity 66%
Rainfall 0.00 in
Snow Depth Not available.
6:28 AM 8:15 PM
Waxing Crescent, 29% visible
METAR LGAV 010320Z 09005KT CAVOK 16/10 Q1009 NOSIG
Pressure 29.80 in
Visibility -9999.0 miles
Clouds
Dew Point 54 °F
Humidity 66%
Rainfall 0.00 in
Snow Depth Not available.
6:28 AM 8:15 PM
Waxing Crescent, 29% visible
METAR LGAV 010320Z 09005KT CAVOK 16/10 Q1009 NOSIG

Get Severe Weather Alerts

Thanks for signing up!

Be on the lookout for a verification email in your inbox.

You'll start receiving the daily forecast at 8 AM.

×

10-Day Weather Forecast

×

Almanac

Astronomy

May. 01, 2017 Rise Set
Actual Time
Civil Twilight
Nautical Twilight
Astronomical Twilight
Moon
Length of Visible Light
Length of Day
Tomorrow will be .
, % of the Moon is Illuminated

Today's Extremes

Country Highs Country Lows

Community

WunderPhotos

WunderBlog® & News

Nearby

Air Quality

  Air Quality AQ Index Pollutant
Not available.

Snow Depth

Station Depth Elevation

Earthquake Activity

City Distance Mag. Time & Date
Minimum magnitude displayed is 2.5.

Coastal Water Temperatures

Place Temperature

Stations

Nearby Weather Stations

Station Location Temp. Windchill Dew Point Humidity Wind Precip. Elev Updated Type